sensor_id;sensor_type;location;lat;lon;timestamp;temperature;humidity
36990;DHT22;22898;52.102;5.776;2022-08-25T00:01:47;31.00;74.40
36990;DHT22;22898;52.102;5.776;2022-08-25T00:04:15;31.00;74.40
36990;DHT22;22898;52.102;5.776;2022-08-25T00:06:42;30.90;74.50
36990;DHT22;22898;52.102;5.776;2022-08-25T00:09:09;30.90;74.40
36990;DHT22;22898;52.102;5.776;2022-08-25T00:11:37;31.00;74.50
36990;DHT22;22898;52.102;5.776;2022-08-25T00:14:06;30.80;74.40
36990;DHT22;22898;52.102;5.776;2022-08-25T00:16:32;30.80;74.60
36990;DHT22;22898;52.102;5.776;2022-08-25T00:19:01;30.70;74.50
36990;DHT22;22898;52.102;5.776;2022-08-25T00:21:27;30.70;74.80
36990;DHT22;22898;52.102;5.776;2022-08-25T00:23:53;30.70;74.80
36990;DHT22;22898;52.102;5.776;2022-08-25T00:26:19;30.60;74.60
36990;DHT22;22898;52.102;5.776;2022-08-25T00:28:45;30.60;74.50
36990;DHT22;22898;52.102;5.776;2022-08-25T00:31:13;30.50;74.30
36990;DHT22;22898;52.102;5.776;2022-08-25T00:33:39;30.40;74.60
36990;DHT22;22898;52.102;5.776;2022-08-25T00:36:05;30.40;74.30
36990;DHT22;22898;52.102;5.776;2022-08-25T00:38:31;30.40;74.40
36990;DHT22;22898;52.102;5.776;2022-08-25T00:40:56;30.40;74.20
36990;DHT22;22898;52.102;5.776;2022-08-25T00:46:07;30.30;73.20
36990;DHT22;22898;52.102;5.776;2022-08-25T00:48:32;30.20;73.30
36990;DHT22;22898;52.102;5.776;2022-08-25T00:50:59;30.00;73.80
36990;DHT22;22898;52.102;5.776;2022-08-25T00:53:28;30.00;74.10
36990;DHT22;22898;52.102;5.776;2022-08-25T00:55:54;30.10;73.80
36990;DHT22;22898;52.102;5.776;2022-08-25T00:58:22;30.10;73.60
36990;DHT22;22898;52.102;5.776;2022-08-25T01:00:51;30.10;73.20
36990;DHT22;22898;52.102;5.776;2022-08-25T01:03:18;30.20;72.90
36990;DHT22;22898;52.102;5.776;2022-08-25T01:05:44;30.10;72.60
36990;DHT22;22898;52.102;5.776;2022-08-25T01:08:11;30.10;72.60
36990;DHT22;22898;52.102;5.776;2022-08-25T01:10:39;30.10;72.00
36990;DHT22;22898;52.102;5.776;2022-08-25T01:13:21;30.10;71.40
36990;DHT22;22898;52.102;5.776;2022-08-25T01:15:53;30.10;71.10
36990;DHT22;22898;52.102;5.776;2022-08-25T01:18:19;30.10;71.90
36990;DHT22;22898;52.102;5.776;2022-08-25T01:20:50;30.00;71.20
36990;DHT22;22898;52.102;5.776;2022-08-25T01:23:16;30.00;71.10
36990;DHT22;22898;52.102;5.776;2022-08-25T01:25:57;30.00;70.50
36990;DHT22;22898;52.102;5.776;2022-08-25T01:28:24;30.00;70.50
36990;DHT22;22898;52.102;5.776;2022-08-25T01:30:50;30.00;70.20
36990;DHT22;22898;52.102;5.776;2022-08-25T01:33:17;30.10;69.70
36990;DHT22;22898;52.102;5.776;2022-08-25T01:35:43;30.10;70.00
36990;DHT22;22898;52.102;5.776;2022-08-25T01:38:09;30.00;69.70
36990;DHT22;22898;52.102;5.776;2022-08-25T01:40:37;30.00;69.40
36990;DHT22;22898;52.102;5.776;2022-08-25T01:43:16;29.90;69.70
36990;DHT22;22898;52.102;5.776;2022-08-25T01:45:46;29.90;69.30
36990;DHT22;22898;52.102;5.776;2022-08-25T01:48:13;29.90;68.90
36990;DHT22;22898;52.102;5.776;2022-08-25T01:50:39;30.00;67.60
36990;DHT22;22898;52.102;5.776;2022-08-25T01:53:22;30.10;67.80
36990;DHT22;22898;52.102;5.776;2022-08-25T01:55:49;30.10;67.00
36990;DHT22;22898;52.102;5.776;2022-08-25T01:58:25;30.10;66.50
36990;DHT22;22898;52.102;5.776;2022-08-25T02:00:53;30.10;66.40
36990;DHT22;22898;52.102;5.776;2022-08-25T02:03:22;30.20;66.50
36990;DHT22;22898;52.102;5.776;2022-08-25T02:05:49;30.20;66.30
36990;DHT22;22898;52.102;5.776;2022-08-25T02:08:15;30.20;66.20
36990;DHT22;22898;52.102;5.776;2022-08-25T02:10:41;30.30;65.40
36990;DHT22;22898;52.102;5.776;2022-08-25T02:13:07;30.40;64.70
36990;DHT22;22898;52.102;5.776;2022-08-25T02:15:33;30.40;64.50
36990;DHT22;22898;52.102;5.776;2022-08-25T02:18:00;30.40;64.70
36990;DHT22;22898;52.102;5.776;2022-08-25T02:20:25;30.40;64.50
36990;DHT22;22898;52.102;5.776;2022-08-25T02:22:52;30.30;64.20
36990;DHT22;22898;52.102;5.776;2022-08-25T02:25:19;30.30;64.20
36990;DHT22;22898;52.102;5.776;2022-08-25T02:27:45;30.30;64.30
36990;DHT22;22898;52.102;5.776;2022-08-25T02:30:12;30.40;63.90
36990;DHT22;22898;52.102;5.776;2022-08-25T02:32:38;30.30;63.90
36990;DHT22;22898;52.102;5.776;2022-08-25T02:35:05;30.40;63.90
36990;DHT22;22898;52.102;5.776;2022-08-25T02:37:32;30.30;63.60
36990;DHT22;22898;52.102;5.776;2022-08-25T02:39:57;30.20;63.80
36990;DHT22;22898;52.102;5.776;2022-08-25T02:42:24;30.10;63.80
36990;DHT22;22898;52.102;5.776;2022-08-25T02:44:50;30.20;63.20
36990;DHT22;22898;52.102;5.776;2022-08-25T02:47:16;30.20;63.40
36990;DHT22;22898;52.102;5.776;2022-08-25T02:49:41;30.20;63.50
36990;DHT22;22898;52.102;5.776;2022-08-25T02:52:07;30.20;63.00
36990;DHT22;22898;52.102;5.776;2022-08-25T02:54:34;30.20;62.80
36990;DHT22;22898;52.102;5.776;2022-08-25T02:56:59;30.20;62.90
36990;DHT22;22898;52.102;5.776;2022-08-25T02:59:25;30.10;62.90
36990;DHT22;22898;52.102;5.776;2022-08-25T03:01:51;30.10;63.10
36990;DHT22;22898;52.102;5.776;2022-08-25T03:04:16;30.10;62.80
36990;DHT22;22898;52.102;5.776;2022-08-25T03:06:42;30.00;62.60
36990;DHT22;22898;52.102;5.776;2022-08-25T03:09:08;30.10;62.40
36990;DHT22;22898;52.102;5.776;2022-08-25T03:11:34;30.00;62.30
36990;DHT22;22898;52.102;5.776;2022-08-25T03:14:01;30.10;61.90
36990;DHT22;22898;52.102;5.776;2022-08-25T03:16:27;30.10;61.90
36990;DHT22;22898;52.102;5.776;2022-08-25T03:18:52;30.10;61.70
36990;DHT22;22898;52.102;5.776;2022-08-25T03:21:18;30.10;61.70
36990;DHT22;22898;52.102;5.776;2022-08-25T03:23:44;30.00;61.60
36990;DHT22;22898;52.102;5.776;2022-08-25T03:26:09;30.10;61.30
36990;DHT22;22898;52.102;5.776;2022-08-25T03:28:54;30.10;62.00
36990;DHT22;22898;52.102;5.776;2022-08-25T03:31:21;30.00;61.70
36990;DHT22;22898;52.102;5.776;2022-08-25T03:33:47;29.90;62.00
36990;DHT22;22898;52.102;5.776;2022-08-25T03:36:13;30.00;64.70
36990;DHT22;22898;52.102;5.776;2022-08-25T03:38:40;30.00;64.90
36990;DHT22;22898;52.102;5.776;2022-08-25T03:41:15;29.90;64.70
36990;DHT22;22898;52.102;5.776;2022-08-25T03:43:41;29.80;65.10
36990;DHT22;22898;52.102;5.776;2022-08-25T03:46:08;29.80;65.60
36990;DHT22;22898;52.102;5.776;2022-08-25T03:48:34;29.70;66.00
36990;DHT22;22898;52.102;5.776;2022-08-25T03:51:00;29.60;65.70
36990;DHT22;22898;52.102;5.776;2022-08-25T03:53:25;29.60;66.30
36990;DHT22;22898;52.102;5.776;2022-08-25T03:55:51;29.50;65.60
36990;DHT22;22898;52.102;5.776;2022-08-25T03:58:16;29.50;64.20
36990;DHT22;22898;52.102;5.776;2022-08-25T04:00:42;29.50;64.80
36990;DHT22;22898;52.102;5.776;2022-08-25T04:03:08;29.40;64.50
36990;DHT22;22898;52.102;5.776;2022-08-25T04:05:34;29.30;63.40
36990;DHT22;22898;52.102;5.776;2022-08-25T04:07:59;29.30;65.60
36990;DHT22;22898;52.102;5.776;2022-08-25T04:10:26;29.20;64.40
36990;DHT22;22898;52.102;5.776;2022-08-25T04:12:51;29.10;64.40
36990;DHT22;22898;52.102;5.776;2022-08-25T04:15:17;29.20;64.20
36990;DHT22;22898;52.102;5.776;2022-08-25T04:17:43;29.10;63.40
36990;DHT22;22898;52.102;5.776;2022-08-25T04:20:09;29.10;63.30
36990;DHT22;22898;52.102;5.776;2022-08-25T04:22:36;29.20;64.70
36990;DHT22;22898;52.102;5.776;2022-08-25T04:25:04;29.10;64.20
36990;DHT22;22898;52.102;5.776;2022-08-25T04:27:30;29.10;64.90
36990;DHT22;22898;52.102;5.776;2022-08-25T04:29:55;29.10;64.40
36990;DHT22;22898;52.102;5.776;2022-08-25T04:32:21;29.00;64.80
36990;DHT22;22898;52.102;5.776;2022-08-25T04:34:46;29.00;64.90
36990;DHT22;22898;52.102;5.776;2022-08-25T04:37:13;28.90;65.40
36990;DHT22;22898;52.102;5.776;2022-08-25T04:39:39;28.90;65.90
36990;DHT22;22898;52.102;5.776;2022-08-25T04:42:05;28.90;66.10
36990;DHT22;22898;52.102;5.776;2022-08-25T04:44:31;28.80;66.40
36990;DHT22;22898;52.102;5.776;2022-08-25T04:46:57;28.80;65.90
36990;DHT22;22898;52.102;5.776;2022-08-25T04:49:23;29.00;65.20
36990;DHT22;22898;52.102;5.776;2022-08-25T04:51:49;29.00;65.00
36990;DHT22;22898;52.102;5.776;2022-08-25T04:54:16;29.00;65.00
36990;DHT22;22898;52.102;5.776;2022-08-25T04:56:45;29.00;65.00
36990;DHT22;22898;52.102;5.776;2022-08-25T04:59:13;29.00;64.50
36990;DHT22;22898;52.102;5.776;2022-08-25T05:01:40;29.00;64.60
36990;DHT22;22898;52.102;5.776;2022-08-25T05:04:09;29.10;63.60
36990;DHT22;22898;52.102;5.776;2022-08-25T05:06:35;29.00;63.60
36990;DHT22;22898;52.102;5.776;2022-08-25T05:09:02;29.10;64.10
36990;DHT22;22898;52.102;5.776;2022-08-25T05:11:28;29.10;63.90
36990;DHT22;22898;52.102;5.776;2022-08-25T05:13:55;29.10;64.00
36990;DHT22;22898;52.102;5.776;2022-08-25T05:16:22;29.10;63.40
36990;DHT22;22898;52.102;5.776;2022-08-25T05:18:49;29.10;63.40
36990;DHT22;22898;52.102;5.776;2022-08-25T05:21:17;29.10;64.40
36990;DHT22;22898;52.102;5.776;2022-08-25T05:23:43;29.20;64.20
36990;DHT22;22898;52.102;5.776;2022-08-25T05:26:17;29.20;64.40
36990;DHT22;22898;52.102;5.776;2022-08-25T05:28:43;29.30;63.70
36990;DHT22;22898;52.102;5.776;2022-08-25T05:31:11;29.30;63.60
36990;DHT22;22898;52.102;5.776;2022-08-25T05:33:38;29.10;64.80
36990;DHT22;22898;52.102;5.776;2022-08-25T05:36:06;29.10;65.40
36990;DHT22;22898;52.102;5.776;2022-08-25T05:38:32;29.20;65.40
36990;DHT22;22898;52.102;5.776;2022-08-25T05:41:00;29.20;65.00
36990;DHT22;22898;52.102;5.776;2022-08-25T05:43:26;29.30;65.00
36990;DHT22;22898;52.102;5.776;2022-08-25T05:45:54;29.30;64.20
36990;DHT22;22898;52.102;5.776;2022-08-25T05:48:20;29.40;65.10
36990;DHT22;22898;52.102;5.776;2022-08-25T05:50:53;29.40;65.60
36990;DHT22;22898;52.102;5.776;2022-08-25T05:53:20;29.40;65.70
36990;DHT22;22898;52.102;5.776;2022-08-25T05:55:47;29.50;65.10
36990;DHT22;22898;52.102;5.776;2022-08-25T05:58:12;29.50;64.30
36990;DHT22;22898;52.102;5.776;2022-08-25T06:00:38;29.60;64.60
36990;DHT22;22898;52.102;5.776;2022-08-25T06:03:04;29.60;63.90
36990;DHT22;22898;52.102;5.776;2022-08-25T06:05:30;29.60;64.60
36990;DHT22;22898;52.102;5.776;2022-08-25T06:07:57;29.70;63.20
36990;DHT22;22898;52.102;5.776;2022-08-25T06:10:22;29.70;63.00
36990;DHT22;22898;52.102;5.776;2022-08-25T06:12:48;29.70;63.40
36990;DHT22;22898;52.102;5.776;2022-08-25T06:15:20;29.80;63.00
36990;DHT22;22898;52.102;5.776;2022-08-25T06:17:47;29.70;64.00
36990;DHT22;22898;52.102;5.776;2022-08-25T06:20:19;29.70;63.00
36990;DHT22;22898;52.102;5.776;2022-08-25T06:22:45;29.50;63.50
36990;DHT22;22898;52.102;5.776;2022-08-25T06:25:13;29.60;63.10
36990;DHT22;22898;52.102;5.776;2022-08-25T06:27:39;29.50;63.30
36990;DHT22;22898;52.102;5.776;2022-08-25T06:30:07;29.70;62.90
36990;DHT22;22898;52.102;5.776;2022-08-25T06:32:35;29.80;62.90
36990;DHT22;22898;52.102;5.776;2022-08-25T06:35:02;29.80;62.90
36990;DHT22;22898;52.102;5.776;2022-08-25T06:37:29;29.90;62.70
36990;DHT22;22898;52.102;5.776;2022-08-25T06:39:54;30.00;62.00
36990;DHT22;22898;52.102;5.776;2022-08-25T06:42:20;30.10;61.40
36990;DHT22;22898;52.102;5.776;2022-08-25T06:44:46;30.10;61.70
36990;DHT22;22898;52.102;5.776;2022-08-25T06:47:11;30.00;61.40
36990;DHT22;22898;52.102;5.776;2022-08-25T06:49:40;30.10;61.70
36990;DHT22;22898;52.102;5.776;2022-08-25T06:52:05;30.40;61.00
36990;DHT22;22898;52.102;5.776;2022-08-25T06:54:31;30.40;60.50
36990;DHT22;22898;52.102;5.776;2022-08-25T06:56:57;30.50;60.70
36990;DHT22;22898;52.102;5.776;2022-08-25T06:59:22;30.50;60.40
36990;DHT22;22898;52.102;5.776;2022-08-25T07:01:48;30.70;59.70
36990;DHT22;22898;52.102;5.776;2022-08-25T07:04:14;30.50;60.90
36990;DHT22;22898;52.102;5.776;2022-08-25T07:06:39;30.40;60.20
36990;DHT22;22898;52.102;5.776;2022-08-25T07:09:10;30.60;61.00
36990;DHT22;22898;52.102;5.776;2022-08-25T07:11:36;30.80;59.90
36990;DHT22;22898;52.102;5.776;2022-08-25T07:14:07;31.00;59.70
36990;DHT22;22898;52.102;5.776;2022-08-25T07:16:34;31.10;59.00
36990;DHT22;22898;52.102;5.776;2022-08-25T07:19:00;31.00;59.40
36990;DHT22;22898;52.102;5.776;2022-08-25T07:21:27;31.20;58.80
36990;DHT22;22898;52.102;5.776;2022-08-25T07:23:53;31.10;58.70
36990;DHT22;22898;52.102;5.776;2022-08-25T07:26:22;31.20;58.70
36990;DHT22;22898;52.102;5.776;2022-08-25T07:28:49;31.10;59.50
36990;DHT22;22898;52.102;5.776;2022-08-25T07:31:15;31.20;58.90
36990;DHT22;22898;52.102;5.776;2022-08-25T07:33:41;31.40;58.60
36990;DHT22;22898;52.102;5.776;2022-08-25T07:36:24;31.50;58.80
36990;DHT22;22898;52.102;5.776;2022-08-25T07:38:51;31.90;57.70
36990;DHT22;22898;52.102;5.776;2022-08-25T07:41:16;32.20;57.50
36990;DHT22;22898;52.102;5.776;2022-08-25T07:43:42;32.40;57.30
36990;DHT22;22898;52.102;5.776;2022-08-25T07:46:09;32.60;57.00
36990;DHT22;22898;52.102;5.776;2022-08-25T07:48:34;32.70;57.30
36990;DHT22;22898;52.102;5.776;2022-08-25T07:51:06;32.80;56.20
36990;DHT22;22898;52.102;5.776;2022-08-25T07:53:32;32.80;55.90
36990;DHT22;22898;52.102;5.776;2022-08-25T07:55:58;32.90;56.10
36990;DHT22;22898;52.102;5.776;2022-08-25T07:58:23;32.90;55.50
36990;DHT22;22898;52.102;5.776;2022-08-25T08:00:49;33.10;55.60
36990;DHT22;22898;52.102;5.776;2022-08-25T08:03:18;33.20;55.20
36990;DHT22;22898;52.102;5.776;2022-08-25T08:05:44;33.30;55.20
36990;DHT22;22898;52.102;5.776;2022-08-25T08:08:10;33.40;55.10
36990;DHT22;22898;52.102;5.776;2022-08-25T08:10:39;33.30;55.00
36990;DHT22;22898;52.102;5.776;2022-08-25T08:13:05;33.10;55.20
36990;DHT22;22898;52.102;5.776;2022-08-25T08:15:31;33.20;55.40
36990;DHT22;22898;52.102;5.776;2022-08-25T08:17:58;33.40;55.30
36990;DHT22;22898;52.102;5.776;2022-08-25T08:20:24;33.30;54.30
36990;DHT22;22898;52.102;5.776;2022-08-25T08:22:49;33.30;54.90
36990;DHT22;22898;52.102;5.776;2022-08-25T08:25:15;33.40;54.90
36990;DHT22;22898;52.102;5.776;2022-08-25T08:27:41;33.40;54.60
36990;DHT22;22898;52.102;5.776;2022-08-25T08:30:08;33.60;54.70
36990;DHT22;22898;52.102;5.776;2022-08-25T08:32:34;33.80;54.60
36990;DHT22;22898;52.102;5.776;2022-08-25T08:34:59;33.80;54.30
36990;DHT22;22898;52.102;5.776;2022-08-25T08:37:25;33.90;54.30
36990;DHT22;22898;52.102;5.776;2022-08-25T08:39:50;34.10;54.20
36990;DHT22;22898;52.102;5.776;2022-08-25T08:45:26;34.30;54.00
36990;DHT22;22898;52.102;5.776;2022-08-25T08:48:02;34.30;53.80
36990;DHT22;22898;52.102;5.776;2022-08-25T08:56:23;34.70;54.20
36990;DHT22;22898;52.102;5.776;2022-08-25T08:58:59;35.00;54.40
36990;DHT22;22898;52.102;5.776;2022-08-25T09:01:46;35.20;53.30
36990;DHT22;22898;52.102;5.776;2022-08-25T09:06:43;35.00;52.60
36990;DHT22;22898;52.102;5.776;2022-08-25T09:09:12;35.20;53.30
36990;DHT22;22898;52.102;5.776;2022-08-25T09:12:00;35.20;53.20
36990;DHT22;22898;52.102;5.776;2022-08-25T09:14:42;35.40;53.20
36990;DHT22;22898;52.102;5.776;2022-08-25T09:23:02;35.60;52.40
36990;DHT22;22898;52.102;5.776;2022-08-25T09:25:48;35.60;51.40
36990;DHT22;22898;52.102;5.776;2022-08-25T09:30:57;35.40;51.50
36990;DHT22;22898;52.102;5.776;2022-08-25T09:33:24;35.60;51.70
36990;DHT22;22898;52.102;5.776;2022-08-25T09:35:52;35.70;51.90
36990;DHT22;22898;52.102;5.776;2022-08-25T09:38:18;35.70;50.40
36990;DHT22;22898;52.102;5.776;2022-08-25T09:40:47;35.70;51.30
36990;DHT22;22898;52.102;5.776;2022-08-25T09:46:01;36.10;50.80
36990;DHT22;22898;52.102;5.776;2022-08-25T09:48:30;36.20;49.60
36990;DHT22;22898;52.102;5.776;2022-08-25T09:51:18;36.10;49.10
36990;DHT22;22898;52.102;5.776;2022-08-25T09:54:14;36.00;49.10
36990;DHT22;22898;52.102;5.776;2022-08-25T09:59:31;35.90;48.60
36990;DHT22;22898;52.102;5.776;2022-08-25T10:02:01;36.00;49.40
36990;DHT22;22898;52.102;5.776;2022-08-25T10:04:35;36.00;49.00
36990;DHT22;22898;52.102;5.776;2022-08-25T10:07:05;36.20;49.30
36990;DHT22;22898;52.102;5.776;2022-08-25T10:09:51;36.20;49.10
36990;DHT22;22898;52.102;5.776;2022-08-25T10:12:28;36.40;49.20
36990;DHT22;22898;52.102;5.776;2022-08-25T10:14:54;36.40;48.20
36990;DHT22;22898;52.102;5.776;2022-08-25T10:17:28;36.60;48.50
36990;DHT22;22898;52.102;5.776;2022-08-25T10:22:38;36.50;47.70
36990;DHT22;22898;52.102;5.776;2022-08-25T10:25:07;36.60;48.60
36990;DHT22;22898;52.102;5.776;2022-08-25T10:30:40;36.60;48.10
36990;DHT22;22898;52.102;5.776;2022-08-25T10:38:57;37.40;47.50
36990;DHT22;22898;52.102;5.776;2022-08-25T10:41:50;37.40;46.70
36990;DHT22;22898;52.102;5.776;2022-08-25T10:47:33;37.40;46.00
36990;DHT22;22898;52.102;5.776;2022-08-25T10:56:03;37.00;46.80
36990;DHT22;22898;52.102;5.776;2022-08-25T10:58:57;37.10;47.00
36990;DHT22;22898;52.102;5.776;2022-08-25T11:01:47;37.20;46.50
36990;DHT22;22898;52.102;5.776;2022-08-25T11:04:25;37.40;45.90
36990;DHT22;22898;52.102;5.776;2022-08-25T11:07:03;37.20;46.00
36990;DHT22;22898;52.102;5.776;2022-08-25T11:09:36;37.40;46.60
36990;DHT22;22898;52.102;5.776;2022-08-25T11:12:09;37.70;46.00
36990;DHT22;22898;52.102;5.776;2022-08-25T11:14:39;38.00;46.30
36990;DHT22;22898;52.102;5.776;2022-08-25T11:17:19;38.20;45.00
36990;DHT22;22898;52.102;5.776;2022-08-25T11:19:49;38.10;45.60
36990;DHT22;22898;52.102;5.776;2022-08-25T11:22:28;38.10;45.20
36990;DHT22;22898;52.102;5.776;2022-08-25T11:27:42;37.90;45.40
36990;DHT22;22898;52.102;5.776;2022-08-25T11:30:13;38.10;45.70
36990;DHT22;22898;52.102;5.776;2022-08-25T11:32:43;38.20;45.20
36990;DHT22;22898;52.102;5.776;2022-08-25T11:35:12;38.30;45.30
36990;DHT22;22898;52.102;5.776;2022-08-25T11:38:13;38.30;45.70
36990;DHT22;22898;52.102;5.776;2022-08-25T11:51:54;38.50;44.80
36990;DHT22;22898;52.102;5.776;2022-08-25T11:54:27;38.60;44.70
36990;DHT22;22898;52.102;5.776;2022-08-25T11:57:04;38.60;44.10
36990;DHT22;22898;52.102;5.776;2022-08-25T12:02:43;38.70;43.90
36990;DHT22;22898;52.102;5.776;2022-08-25T12:10:58;38.70;43.30
36990;DHT22;22898;52.102;5.776;2022-08-25T12:13:39;38.80;43.40
36990;DHT22;22898;52.102;5.776;2022-08-25T12:16:06;38.90;43.10
36990;DHT22;22898;52.102;5.776;2022-08-25T12:18:51;39.10;43.20
36990;DHT22;22898;52.102;5.776;2022-08-25T12:21:29;39.10;43.10
36990;DHT22;22898;52.102;5.776;2022-08-25T12:24:11;39.00;43.70
36990;DHT22;22898;52.102;5.776;2022-08-25T12:29:30;38.80;43.60
36990;DHT22;22898;52.102;5.776;2022-08-25T12:37:21;38.70;43.70
36990;DHT22;22898;52.102;5.776;2022-08-25T12:42:34;39.10;43.50
36990;DHT22;22898;52.102;5.776;2022-08-25T12:47:34;39.80;42.40
36990;DHT22;22898;52.102;5.776;2022-08-25T12:53:50;39.70;42.90
36990;DHT22;22898;52.102;5.776;2022-08-25T12:56:01;39.80;42.40
36990;DHT22;22898;52.102;5.776;2022-08-25T12:58:36;40.10;42.50
36990;DHT22;22898;52.102;5.776;2022-08-25T13:12:36;39.50;42.40
36990;DHT22;22898;52.102;5.776;2022-08-25T13:15:04;39.70;42.30
36990;DHT22;22898;52.102;5.776;2022-08-25T13:17:33;39.90;41.40
36990;DHT22;22898;52.102;5.776;2022-08-25T13:22:46;39.70;41.90
36990;DHT22;22898;52.102;5.776;2022-08-25T13:25:22;39.60;41.40
36990;DHT22;22898;52.102;5.776;2022-08-25T13:27:56;39.60;41.70
36990;DHT22;22898;52.102;5.776;2022-08-25T13:30:34;39.10;43.60
36990;DHT22;22898;52.102;5.776;2022-08-25T13:33:15;39.10;43.10
36990;DHT22;22898;52.102;5.776;2022-08-25T13:35:47;39.40;41.80
36990;DHT22;22898;52.102;5.776;2022-08-25T13:38:17;39.10;42.80
36990;DHT22;22898;52.102;5.776;2022-08-25T13:40:43;39.10;43.00
36990;DHT22;22898;52.102;5.776;2022-08-25T13:43:11;39.40;42.10
36990;DHT22;22898;52.102;5.776;2022-08-25T13:45:40;39.80;42.10
36990;DHT22;22898;52.102;5.776;2022-08-25T13:48:07;40.00;41.50
36990;DHT22;22898;52.102;5.776;2022-08-25T13:50:37;39.60;42.10
36990;DHT22;22898;52.102;5.776;2022-08-25T13:53:06;39.40;42.10
36990;DHT22;22898;52.102;5.776;2022-08-25T13:55:40;39.30;42.10
36990;DHT22;22898;52.102;5.776;2022-08-25T13:58:14;39.30;42.20
36990;DHT22;22898;52.102;5.776;2022-08-25T14:00:46;39.50;41.70
36990;DHT22;22898;52.102;5.776;2022-08-25T14:03:36;39.80;42.00
36990;DHT22;22898;52.102;5.776;2022-08-25T14:08:45;40.50;40.70
36990;DHT22;22898;52.102;5.776;2022-08-25T14:11:39;40.50;40.60
36990;DHT22;22898;52.102;5.776;2022-08-25T14:14:31;40.50;40.60
36990;DHT22;22898;52.102;5.776;2022-08-25T14:16:59;40.40;40.40
36990;DHT22;22898;52.102;5.776;2022-08-25T14:19:25;40.40;40.40
36990;DHT22;22898;52.102;5.776;2022-08-25T14:21:52;40.50;40.60
36990;DHT22;22898;52.102;5.776;2022-08-25T14:24:21;40.20;40.80
36990;DHT22;22898;52.102;5.776;2022-08-25T14:26:47;40.10;41.20
36990;DHT22;22898;52.102;5.776;2022-08-25T14:29:14;39.90;41.40
36990;DHT22;22898;52.102;5.776;2022-08-25T14:31:42;39.90;41.00
36990;DHT22;22898;52.102;5.776;2022-08-25T14:34:13;39.70;40.90
36990;DHT22;22898;52.102;5.776;2022-08-25T14:36:40;39.50;41.00
36990;DHT22;22898;52.102;5.776;2022-08-25T14:39:05;39.40;41.70
36990;DHT22;22898;52.102;5.776;2022-08-25T14:41:33;39.50;41.30
36990;DHT22;22898;52.102;5.776;2022-08-25T14:44:00;39.40;41.30
36990;DHT22;22898;52.102;5.776;2022-08-25T14:46:27;39.60;41.40
36990;DHT22;22898;52.102;5.776;2022-08-25T14:48:56;39.50;41.60
36990;DHT22;22898;52.102;5.776;2022-08-25T14:51:25;39.40;42.50
36990;DHT22;22898;52.102;5.776;2022-08-25T14:53:53;39.30;41.90
36990;DHT22;22898;52.102;5.776;2022-08-25T14:56:19;39.20;41.90
36990;DHT22;22898;52.102;5.776;2022-08-25T14:58:45;39.20;42.80
36990;DHT22;22898;52.102;5.776;2022-08-25T15:01:12;39.30;42.10
36990;DHT22;22898;52.102;5.776;2022-08-25T15:03:41;39.40;41.60
36990;DHT22;22898;52.102;5.776;2022-08-25T15:06:10;39.40;41.80
36990;DHT22;22898;52.102;5.776;2022-08-25T15:08:36;39.40;41.30
36990;DHT22;22898;52.102;5.776;2022-08-25T15:11:21;39.40;41.30
36990;DHT22;22898;52.102;5.776;2022-08-25T15:13:46;39.30;42.00
36990;DHT22;22898;52.102;5.776;2022-08-25T15:16:22;39.00;42.50
36990;DHT22;22898;52.102;5.776;2022-08-25T15:18:48;39.10;42.40
36990;DHT22;22898;52.102;5.776;2022-08-25T15:21:14;39.10;41.90
36990;DHT22;22898;52.102;5.776;2022-08-25T15:23:40;39.00;41.60
36990;DHT22;22898;52.102;5.776;2022-08-25T15:26:08;39.00;41.90
36990;DHT22;22898;52.102;5.776;2022-08-25T15:28:37;39.10;41.90
36990;DHT22;22898;52.102;5.776;2022-08-25T15:31:03;39.30;41.90
36990;DHT22;22898;52.102;5.776;2022-08-25T15:33:29;39.10;41.70
36990;DHT22;22898;52.102;5.776;2022-08-25T15:35:54;38.80;41.90
36990;DHT22;22898;52.102;5.776;2022-08-25T15:38:20;38.80;42.30
36990;DHT22;22898;52.102;5.776;2022-08-25T15:40:45;38.70;42.00
36990;DHT22;22898;52.102;5.776;2022-08-25T15:43:11;38.80;42.00
36990;DHT22;22898;52.102;5.776;2022-08-25T15:45:36;38.90;42.70
36990;DHT22;22898;52.102;5.776;2022-08-25T15:48:03;39.00;42.60
36990;DHT22;22898;52.102;5.776;2022-08-25T15:50:29;39.10;42.40
36990;DHT22;22898;52.102;5.776;2022-08-25T15:52:54;39.30;42.30
36990;DHT22;22898;52.102;5.776;2022-08-25T15:55:20;39.40;42.30
36990;DHT22;22898;52.102;5.776;2022-08-25T15:57:46;39.50;42.10
36990;DHT22;22898;52.102;5.776;2022-08-25T16:00:12;39.60;42.20
36990;DHT22;22898;52.102;5.776;2022-08-25T16:02:38;39.60;41.70
36990;DHT22;22898;52.102;5.776;2022-08-25T16:05:06;39.60;42.10
36990;DHT22;22898;52.102;5.776;2022-08-25T16:07:31;39.70;42.20
36990;DHT22;22898;52.102;5.776;2022-08-25T16:09:58;39.80;42.30
36990;DHT22;22898;52.102;5.776;2022-08-25T16:12:24;39.80;41.80
36990;DHT22;22898;52.102;5.776;2022-08-25T16:14:50;39.90;41.70
36990;DHT22;22898;52.102;5.776;2022-08-25T16:17:17;39.90;42.00
36990;DHT22;22898;52.102;5.776;2022-08-25T16:19:43;39.90;42.20
36990;DHT22;22898;52.102;5.776;2022-08-25T16:22:09;39.90;42.90
36990;DHT22;22898;52.102;5.776;2022-08-25T16:24:41;39.80;43.00
36990;DHT22;22898;52.102;5.776;2022-08-25T16:27:08;39.70;42.90
36990;DHT22;22898;52.102;5.776;2022-08-25T16:29:36;39.70;43.00
36990;DHT22;22898;52.102;5.776;2022-08-25T16:32:04;39.70;43.00
36990;DHT22;22898;52.102;5.776;2022-08-25T16:34:30;39.70;42.70
36990;DHT22;22898;52.102;5.776;2022-08-25T16:36:56;39.70;42.60
36990;DHT22;22898;52.102;5.776;2022-08-25T16:39:23;39.70;43.20
36990;DHT22;22898;52.102;5.776;2022-08-25T16:41:50;39.60;43.60
36990;DHT22;22898;52.102;5.776;2022-08-25T16:44:17;39.50;43.90
36990;DHT22;22898;52.102;5.776;2022-08-25T16:46:42;39.60;42.90
36990;DHT22;22898;52.102;5.776;2022-08-25T16:49:10;39.50;43.10
36990;DHT22;22898;52.102;5.776;2022-08-25T16:51:38;39.40;43.30
36990;DHT22;22898;52.102;5.776;2022-08-25T16:54:05;39.30;43.70
36990;DHT22;22898;52.102;5.776;2022-08-25T16:56:49;39.10;43.30
36990;DHT22;22898;52.102;5.776;2022-08-25T16:59:15;39.10;43.60
36990;DHT22;22898;52.102;5.776;2022-08-25T17:01:41;39.10;42.40
36990;DHT22;22898;52.102;5.776;2022-08-25T17:04:08;39.00;42.60
36990;DHT22;22898;52.102;5.776;2022-08-25T17:06:37;39.00;43.20
36990;DHT22;22898;52.102;5.776;2022-08-25T17:09:04;39.00;43.20
36990;DHT22;22898;52.102;5.776;2022-08-25T17:11:32;39.00;43.40
36990;DHT22;22898;52.102;5.776;2022-08-25T17:14:00;39.10;42.70
36990;DHT22;22898;52.102;5.776;2022-08-25T17:16:28;39.00;42.90
36990;DHT22;22898;52.102;5.776;2022-08-25T17:18:59;39.00;43.30
36990;DHT22;22898;52.102;5.776;2022-08-25T17:21:29;38.90;43.60
36990;DHT22;22898;52.102;5.776;2022-08-25T17:23:56;38.90;43.40
36990;DHT22;22898;52.102;5.776;2022-08-25T17:26:24;38.90;43.30